createdAt,value
2023-02-26T00:02:02.226Z,55.00
2023-02-26T00:04:30.883Z,55.00
2023-02-26T00:06:59.370Z,55.00
2023-02-26T00:09:28.857Z,55.00
2023-02-26T00:11:58.268Z,55.00
2023-02-26T00:14:28.355Z,55.10
2023-02-26T00:17:16.111Z,55.10
2023-02-26T00:19:45.067Z,55.80
2023-02-26T00:22:14.610Z,55.10
2023-02-26T00:24:43.361Z,55.10
2023-02-26T00:27:13.420Z,55.20
2023-02-26T00:29:43.275Z,55.20
2023-02-26T00:32:14.047Z,55.30
2023-02-26T00:34:44.531Z,55.30
2023-02-26T00:37:28.824Z,55.30
2023-02-26T00:40:14.600Z,55.40
2023-02-26T00:42:43.803Z,55.30
2023-02-26T00:45:14.265Z,55.30
2023-02-26T00:47:50.842Z,55.30
2023-02-26T00:50:22.296Z,55.40
2023-02-26T00:53:04.332Z,55.50
2023-02-26T00:55:33.017Z,55.60
2023-02-26T00:58:02.064Z,55.70
2023-02-26T01:00:31.528Z,55.70
2023-02-26T01:03:02.000Z,55.70
2023-02-26T01:05:31.934Z,55.70
2023-02-26T01:08:07.491Z,55.70
2023-02-26T01:10:37.177Z,55.70
2023-02-26T01:13:06.664Z,55.70
2023-02-26T01:15:36.579Z,55.70
2023-02-26T01:18:13.612Z,55.70
2023-02-26T01:20:48.214Z,55.70
2023-02-26T01:23:21.331Z,55.70
2023-02-26T01:25:55.585Z,55.80
2023-02-26T01:28:25.235Z,55.70
2023-02-26T01:30:57.584Z,55.70
2023-02-26T01:33:31.584Z,55.70
2023-02-26T01:36:08.391Z,55.70
2023-02-26T01:38:43.756Z,55.70
2023-02-26T01:41:28.524Z,55.70
2023-02-26T01:44:15.509Z,55.70
2023-02-26T01:47:11.250Z,55.60
2023-02-26T01:49:44.382Z,55.50
2023-02-26T01:53:05.856Z,55.60
2023-02-26T01:55:34.432Z,55.40
2023-02-26T01:58:03.653Z,55.50
2023-02-26T02:00:32.801Z,55.50
2023-02-26T02:03:01.988Z,55.50
2023-02-26T02:05:41.075Z,55.60
2023-02-26T02:08:09.979Z,55.60
2023-02-26T02:10:42.360Z,55.60
2023-02-26T02:13:22.370Z,55.60
2023-02-26T02:16:01.421Z,55.60
2023-02-26T02:18:41.327Z,55.60
2023-02-26T02:22:03.533Z,55.60
2023-02-26T02:24:48.185Z,55.50
2023-02-26T02:27:24.992Z,55.50
2023-02-26T02:30:25.035Z,55.40
2023-02-26T02:33:01.262Z,55.40
2023-02-26T02:35:35.557Z,55.40
2023-02-26T02:38:10.781Z,55.40
2023-02-26T02:40:44.880Z,55.40
2023-02-26T02:43:17.856Z,55.40
2023-02-26T02:45:51.686Z,55.30
2023-02-26T02:48:28.830Z,55.30
2023-02-26T02:51:03.128Z,55.30
2023-02-26T02:53:38.934Z,55.30
2023-02-26T02:56:12.271Z,55.40
2023-02-26T02:58:45.902Z,55.40
2023-02-26T03:01:20.212Z,55.50
2023-02-26T03:03:57.069Z,55.40
2023-02-26T03:06:26.102Z,55.40
2023-02-26T03:08:55.306Z,55.40
2023-02-26T03:11:24.198Z,55.40
2023-02-26T03:13:54.335Z,55.40
2023-02-26T03:16:45.367Z,55.40
2023-02-26T03:19:28.052Z,55.40
2023-02-26T03:22:06.438Z,55.40
2023-02-26T03:24:57.936Z,55.40
2023-02-26T03:27:36.564Z,55.40
2023-02-26T03:30:10.774Z,55.40
2023-02-26T03:32:53.625Z,55.40
2023-02-26T03:35:31.876Z,55.30
2023-02-26T03:38:06.550Z,55.30
2023-02-26T03:40:39.924Z,55.30
2023-02-26T03:43:16.709Z,55.30
2023-02-26T03:45:49.271Z,55.40
2023-02-26T03:48:23.383Z,55.40
2023-02-26T03:50:59.225Z,55.40
2023-02-26T03:53:55.817Z,55.40
2023-02-26T03:56:31.547Z,55.40
2023-02-26T03:59:33.072Z,55.50
2023-02-26T04:02:17.540Z,55.50
2023-02-26T04:04:53.386Z,55.50
2023-02-26T04:07:24.896Z,55.60
2023-02-26T04:09:54.272Z,55.60
2023-02-26T04:12:29.336Z,55.60
2023-02-26T04:14:58.697Z,55.60
2023-02-26T04:17:29.115Z,55.60
2023-02-26T04:19:59.108Z,55.60
2023-02-26T04:22:29.267Z,55.70
2023-02-26T04:24:57.760Z,55.70
2023-02-26T04:27:26.316Z,55.70
2023-02-26T04:29:55.176Z,55.70
2023-02-26T04:32:23.608Z,55.70
2023-02-26T04:34:51.982Z,55.70
2023-02-26T04:37:21.214Z,55.70
2023-02-26T04:39:51.350Z,55.70
2023-02-26T04:42:20.522Z,55.80
2023-02-26T04:44:50.369Z,55.80
2023-02-26T04:47:18.864Z,55.70
2023-02-26T04:49:47.289Z,55.80
2023-02-26T04:52:16.409Z,55.70
2023-02-26T04:54:45.382Z,55.80
2023-02-26T04:57:17.888Z,55.80
2023-02-26T04:59:48.033Z,56.00
2023-02-26T05:02:16.852Z,55.90
2023-02-26T05:04:48.500Z,55.90
2023-02-26T05:07:16.960Z,55.90
2023-02-26T05:09:45.408Z,55.90
2023-02-26T05:12:14.152Z,55.90
2023-02-26T05:14:43.932Z,55.90
2023-02-26T05:17:13.234Z,55.90
2023-02-26T05:19:41.688Z,56.00
2023-02-26T05:22:10.497Z,56.00
2023-02-26T05:24:39.312Z,56.10
2023-02-26T05:27:07.799Z,56.10
2023-02-26T05:29:41.146Z,56.10
2023-02-26T05:32:11.753Z,56.10
2023-02-26T05:34:40.093Z,56.10
2023-02-26T05:37:08.562Z,56.10
2023-02-26T05:39:36.909Z,56.10
2023-02-26T05:42:05.384Z,56.10
2023-02-26T05:44:33.825Z,56.10
2023-02-26T05:47:02.349Z,56.10
2023-02-26T05:49:32.125Z,56.00
2023-02-26T05:52:00.456Z,56.00
2023-02-26T05:54:28.829Z,56.00
2023-02-26T05:56:57.301Z,56.00
2023-02-26T05:59:26.201Z,56.10
2023-02-26T06:01:54.706Z,56.00
2023-02-26T06:04:23.048Z,56.10
2023-02-26T06:06:52.782Z,56.70
2023-02-26T06:09:21.121Z,56.20
2023-02-26T06:11:49.543Z,56.20
2023-02-26T06:14:18.196Z,56.20
2023-02-26T06:16:46.635Z,56.20
2023-02-26T06:19:15.067Z,56.10
2023-02-26T06:21:43.585Z,56.20
2023-02-26T06:24:13.397Z,56.30
2023-02-26T06:26:41.727Z,56.30
2023-02-26T06:29:10.096Z,56.30
2023-02-26T06:31:38.529Z,56.30
2023-02-26T06:34:07.072Z,56.30
2023-02-26T06:36:35.495Z,56.40
2023-02-26T06:39:03.909Z,56.40
2023-02-26T06:41:33.649Z,56.20
2023-02-26T06:44:02.084Z,56.30
2023-02-26T06:46:30.847Z,56.20
2023-02-26T06:48:59.331Z,56.10
2023-02-26T06:51:27.817Z,56.10
2023-02-26T06:53:56.168Z,56.10
2023-02-26T06:56:25.316Z,56.00
2023-02-26T06:58:55.531Z,56.00
2023-02-26T07:01:24.207Z,56.00
2023-02-26T07:03:52.860Z,56.00
2023-02-26T07:06:27.682Z,56.10
2023-02-26T07:08:57.104Z,56.10
2023-02-26T07:11:25.861Z,56.20
2023-02-26T07:13:56.147Z,56.20
2023-02-26T07:16:25.216Z,56.30
2023-02-26T07:18:53.889Z,57.00
2023-02-26T07:21:22.232Z,56.50
2023-02-26T07:23:50.617Z,56.50
2023-02-26T07:26:19.270Z,56.60
2023-02-26T07:28:47.686Z,56.70
2023-02-26T07:31:17.715Z,56.70
2023-02-26T07:33:46.133Z,56.70
2023-02-26T07:36:15.132Z,56.70
2023-02-26T07:38:43.758Z,56.70
2023-02-26T07:41:12.404Z,56.70
2023-02-26T07:43:40.924Z,56.70
2023-02-26T07:46:09.538Z,56.80
2023-02-26T07:48:39.256Z,56.70
2023-02-26T07:51:08.057Z,56.60
2023-02-26T07:53:36.798Z,56.60
2023-02-26T07:56:05.822Z,56.50
2023-02-26T07:58:34.277Z,56.50
2023-02-26T08:01:02.864Z,56.50
2023-02-26T08:03:32.160Z,56.40
2023-02-26T08:06:02.989Z,56.40
2023-02-26T08:08:33.288Z,56.50
2023-02-26T08:11:02.330Z,56.60
2023-02-26T08:13:30.744Z,56.60
2023-02-26T08:15:59.163Z,56.80
2023-02-26T08:18:27.741Z,56.80
2023-02-26T08:20:56.756Z,56.90
2023-02-26T08:23:27.768Z,56.90
2023-02-26T08:26:02.459Z,56.90
2023-02-26T08:28:30.854Z,56.90
2023-02-26T08:30:59.678Z,56.90
2023-02-26T08:33:29.399Z,56.80
2023-02-26T08:35:59.025Z,56.90
2023-02-26T08:38:30.090Z,56.90
2023-02-26T08:40:59.218Z,56.90
2023-02-26T08:43:28.220Z,57.00
2023-02-26T08:45:58.478Z,56.90
2023-02-26T08:48:26.961Z,56.90
2023-02-26T08:50:55.267Z,56.90
2023-02-26T08:53:24.113Z,56.80
2023-02-26T08:55:54.757Z,56.70
2023-02-26T08:58:23.686Z,56.70
2023-02-26T09:00:52.144Z,56.80
2023-02-26T09:03:20.535Z,56.50
2023-02-26T09:05:49.299Z,56.60
2023-02-26T09:08:17.684Z,56.60
2023-02-26T09:10:46.287Z,56.40
2023-02-26T09:13:16.583Z,56.40
2023-02-26T09:15:45.051Z,56.40
2023-02-26T09:18:15.657Z,56.30
2023-02-26T09:20:45.372Z,56.40
2023-02-26T09:23:14.495Z,56.40
2023-02-26T09:25:42.899Z,56.20
2023-02-26T09:28:11.613Z,56.10
2023-02-26T09:30:42.139Z,55.80
2023-02-26T09:33:10.607Z,55.80
2023-02-26T09:35:39.006Z,55.70
2023-02-26T09:38:08.198Z,55.50
2023-02-26T09:40:46.309Z,55.70
2023-02-26T09:43:46.460Z,55.60
2023-02-26T09:46:30.528Z,55.70
2023-02-26T09:49:10.418Z,55.80
2023-02-26T09:51:39.006Z,55.90
2023-02-26T09:54:16.664Z,55.90
2023-02-26T09:56:46.726Z,55.50
2023-02-26T09:59:15.396Z,55.60
2023-02-26T10:01:52.861Z,55.70
2023-02-26T10:04:35.121Z,55.70
2023-02-26T10:07:18.268Z,55.60
2023-02-26T10:10:05.562Z,55.70
2023-02-26T10:12:38.433Z,55.60
2023-02-26T10:15:13.278Z,55.40
2023-02-26T10:17:56.045Z,55.10
2023-02-26T10:20:32.295Z,55.00
2023-02-26T10:23:07.406Z,55.10
2023-02-26T10:25:42.493Z,55.00
2023-02-26T10:28:34.678Z,54.60
2023-02-26T10:31:10.905Z,54.80
2023-02-26T10:33:52.003Z,54.90
2023-02-26T10:36:27.084Z,54.80
2023-02-26T10:39:05.997Z,54.80
2023-02-26T10:41:38.542Z,54.70
2023-02-26T10:44:18.930Z,53.90
2023-02-26T10:46:55.122Z,54.10
2023-02-26T10:49:58.108Z,54.20
2023-02-26T10:52:29.002Z,53.90
2023-02-26T10:55:25.276Z,53.30
2023-02-26T10:58:05.111Z,53.10
2023-02-26T11:00:35.734Z,53.40
2023-02-26T11:03:06.658Z,53.70
2023-02-26T11:05:36.592Z,53.60
2023-02-26T11:08:11.771Z,53.70
2023-02-26T11:10:50.029Z,53.30
2023-02-26T11:13:18.881Z,53.10
2023-02-26T11:15:52.220Z,53.20
2023-02-26T11:18:26.618Z,53.20
2023-02-26T11:20:59.877Z,53.30
2023-02-26T11:23:31.644Z,53.20
2023-02-26T11:26:05.719Z,52.50
2023-02-26T11:28:39.526Z,52.20
2023-02-26T11:31:11.654Z,52.50
2023-02-26T11:33:45.121Z,52.60
2023-02-26T11:36:18.086Z,52.70
2023-02-26T11:38:53.326Z,52.50
2023-02-26T11:41:21.825Z,52.30
2023-02-26T11:44:02.284Z,51.90
2023-02-26T11:46:31.019Z,51.70
2023-02-26T11:49:02.134Z,52.00
2023-02-26T11:51:32.190Z,52.20
2023-02-26T11:54:02.758Z,51.70
2023-02-26T11:56:34.341Z,51.70
2023-02-26T11:59:09.135Z,51.90
2023-02-26T12:01:38.621Z,52.00
2023-02-26T12:04:10.757Z,52.00
2023-02-26T12:06:40.634Z,52.40
2023-02-26T12:09:13.871Z,51.90
2023-02-26T12:12:03.669Z,51.60
2023-02-26T12:14:49.005Z,51.30
2023-02-26T12:17:39.825Z,51.50
2023-02-26T12:20:21.897Z,52.30
2023-02-26T12:23:15.165Z,51.60
2023-02-26T12:26:14.144Z,51.70
2023-02-26T12:29:03.245Z,51.50
2023-02-26T12:32:05.447Z,51.30
2023-02-26T12:35:13.040Z,51.10
2023-02-26T12:37:58.177Z,50.70
2023-02-26T12:41:13.690Z,50.50
2023-02-26T12:43:49.325Z,50.20
2023-02-26T12:46:54.815Z,50.20
2023-02-26T12:49:53.256Z,50.20
2023-02-26T12:52:45.372Z,50.10
2023-02-26T12:55:32.039Z,51.30
2023-02-26T12:58:32.351Z,50.60
2023-02-26T13:01:24.326Z,49.90
2023-02-26T13:04:44.059Z,50.20
2023-02-26T13:07:39.347Z,49.50
2023-02-26T13:10:16.738Z,49.90
2023-02-26T13:12:59.144Z,50.20
2023-02-26T13:15:59.298Z,49.50
2023-02-26T13:18:37.804Z,49.60
2023-02-26T13:21:09.950Z,50.20
2023-02-26T13:23:47.772Z,50.50
2023-02-26T13:26:18.679Z,50.50
2023-02-26T13:28:56.173Z,50.20
2023-02-26T13:31:30.683Z,50.10
2023-02-26T13:34:09.121Z,50.10
2023-02-26T13:36:37.757Z,49.90
2023-02-26T13:39:34.187Z,49.70
2023-02-26T13:42:15.478Z,49.60
2023-02-26T13:44:59.364Z,49.70
2023-02-26T13:47:53.579Z,49.80
2023-02-26T13:50:31.721Z,49.50
2023-02-26T13:53:05.995Z,49.50
2023-02-26T13:55:44.359Z,49.30
2023-02-26T13:58:39.851Z,49.60
2023-02-26T14:01:18.160Z,48.90
2023-02-26T14:03:51.433Z,48.70
2023-02-26T14:06:43.506Z,49.10
2023-02-26T14:09:58.205Z,48.70
2023-02-26T14:12:36.806Z,49.00
2023-02-26T14:15:41.100Z,49.70
2023-02-26T14:18:37.173Z,49.70
2023-02-26T14:21:48.475Z,49.70
2023-02-26T14:24:22.714Z,49.80
2023-02-26T14:26:53.316Z,49.80
2023-02-26T14:29:27.035Z,49.70
2023-02-26T14:32:15.002Z,49.60
2023-02-26T14:34:53.157Z,49.50
2023-02-26T14:37:25.710Z,49.30
2023-02-26T14:40:00.023Z,49.60
2023-02-26T14:42:36.228Z,49.60
2023-02-26T14:45:24.232Z,49.30
2023-02-26T14:47:52.905Z,49.20
2023-02-26T14:50:24.380Z,48.70
2023-02-26T14:53:45.581Z,48.50
2023-02-26T14:56:25.483Z,48.10
2023-02-26T14:59:25.124Z,48.30
2023-02-26T15:02:05.014Z,48.30
2023-02-26T15:05:22.223Z,48.70
2023-02-26T15:08:20.626Z,48.60
2023-02-26T15:11:10.283Z,49.00
2023-02-26T15:14:18.810Z,49.00
2023-02-26T15:17:00.487Z,49.20
2023-02-26T15:19:47.980Z,49.10
2023-02-26T15:22:36.163Z,48.60
2023-02-26T15:25:13.187Z,48.30
2023-02-26T15:27:41.694Z,48.40
2023-02-26T15:30:16.405Z,48.50
2023-02-26T15:32:45.049Z,48.30
2023-02-26T15:35:19.495Z,48.60
2023-02-26T15:37:51.420Z,48.70
2023-02-26T15:40:22.435Z,48.80
2023-02-26T15:42:55.316Z,48.60
2023-02-26T15:45:29.012Z,48.70
2023-02-26T15:48:00.888Z,48.70
2023-02-26T15:50:32.909Z,48.90
2023-02-26T15:53:03.896Z,49.00
2023-02-26T15:55:39.181Z,49.00
2023-02-26T15:58:09.271Z,48.90
2023-02-26T16:00:39.324Z,48.80
2023-02-26T16:03:07.749Z,48.80
2023-02-26T16:05:36.815Z,48.80
2023-02-26T16:08:05.283Z,48.90
2023-02-26T16:10:40.370Z,48.90
2023-02-26T16:13:13.482Z,48.60
2023-02-26T16:15:43.009Z,48.80
2023-02-26T16:18:19.112Z,48.90
2023-02-26T16:20:52.026Z,48.70
2023-02-26T16:23:24.592Z,48.90
2023-02-26T16:25:59.998Z,49.00
2023-02-26T16:28:33.073Z,48.80
2023-02-26T16:31:05.646Z,48.50
2023-02-26T16:33:36.260Z,48.20
2023-02-26T16:36:14.283Z,48.40
2023-02-26T16:38:47.107Z,48.30
2023-02-26T16:41:17.810Z,48.20
2023-02-26T16:43:56.840Z,48.50
2023-02-26T16:46:38.186Z,48.20
2023-02-26T16:49:12.559Z,48.30
2023-02-26T16:51:43.370Z,48.40
2023-02-26T16:54:19.485Z,48.40
2023-02-26T16:56:58.410Z,48.40
2023-02-26T16:59:30.629Z,48.50
2023-02-26T17:02:04.480Z,48.60
2023-02-26T17:04:36.267Z,48.70
2023-02-26T17:07:16.809Z,48.80
2023-02-26T17:09:51.361Z,48.50
2023-02-26T17:12:25.220Z,48.60
2023-02-26T17:14:58.124Z,48.60
2023-02-26T17:17:27.912Z,48.50
2023-02-26T17:19:56.771Z,48.70
2023-02-26T17:22:29.076Z,48.70
2023-02-26T17:24:57.569Z,48.50
2023-02-26T17:27:32.102Z,48.60
2023-02-26T17:30:04.129Z,48.50
2023-02-26T17:32:32.736Z,48.50
2023-02-26T17:35:01.818Z,48.50
2023-02-26T17:37:35.043Z,48.50
2023-02-26T17:40:05.054Z,48.40
2023-02-26T17:42:35.504Z,48.50
2023-02-26T17:45:03.968Z,48.50
2023-02-26T17:47:32.416Z,48.50
2023-02-26T17:50:00.931Z,48.50
2023-02-26T17:52:29.307Z,48.50
2023-02-26T17:54:57.815Z,48.60
2023-02-26T17:57:28.307Z,48.70
2023-02-26T17:59:58.197Z,48.70
2023-02-26T18:02:27.093Z,48.70
2023-02-26T18:04:55.784Z,48.80
2023-02-26T18:07:25.686Z,48.80
2023-02-26T18:09:54.045Z,48.90
2023-02-26T18:12:23.523Z,48.90
2023-02-26T18:14:52.833Z,49.00
2023-02-26T18:17:27.569Z,48.90
2023-02-26T18:19:56.315Z,49.00
2023-02-26T18:22:26.528Z,49.00
2023-02-26T18:24:55.854Z,49.00
2023-02-26T18:27:26.186Z,49.20
2023-02-26T18:29:55.293Z,49.10
2023-02-26T18:32:27.857Z,49.20
2023-02-26T18:34:56.508Z,49.20
2023-02-26T18:37:27.332Z,49.30
2023-02-26T18:39:55.894Z,49.30
2023-02-26T18:42:27.583Z,49.30
2023-02-26T18:44:56.379Z,49.30
2023-02-26T18:47:26.240Z,49.40
2023-02-26T18:49:54.881Z,49.40
2023-02-26T18:52:23.334Z,49.50
2023-02-26T18:54:51.775Z,49.40
2023-02-26T18:57:20.269Z,49.40
2023-02-26T18:59:48.899Z,49.70
2023-02-26T19:02:17.377Z,49.80
2023-02-26T19:04:47.420Z,49.80
2023-02-26T19:07:15.870Z,49.80
2023-02-26T19:09:44.248Z,49.80
2023-02-26T19:12:17.589Z,49.80
2023-02-26T19:14:46.076Z,49.80
2023-02-26T19:17:14.893Z,49.70
2023-02-26T19:19:43.259Z,49.90
2023-02-26T19:22:14.953Z,49.80
2023-02-26T19:24:44.417Z,49.80
2023-02-26T19:27:14.615Z,49.90
2023-02-26T19:29:43.280Z,50.00
2023-02-26T19:32:11.847Z,50.00
2023-02-26T19:34:40.572Z,50.00
2023-02-26T19:37:10.726Z,50.00
2023-02-26T19:39:40.578Z,50.00
2023-02-26T19:42:09.080Z,50.00
2023-02-26T19:44:37.532Z,50.00
2023-02-26T19:47:06.433Z,50.00
2023-02-26T19:49:35.425Z,50.00
2023-02-26T19:52:04.090Z,50.00
2023-02-26T19:54:32.688Z,50.00
2023-02-26T19:57:03.000Z,50.00
2023-02-26T19:59:32.189Z,50.00
2023-02-26T20:02:00.798Z,50.00
2023-02-26T20:04:29.261Z,50.00
2023-02-26T20:06:57.778Z,50.00
2023-02-26T20:09:27.914Z,50.00
2023-02-26T20:11:56.519Z,50.00
2023-02-26T20:14:26.316Z,50.00
2023-02-26T20:16:54.709Z,50.00
2023-02-26T20:19:23.144Z,50.00
2023-02-26T20:21:51.835Z,50.00
2023-02-26T20:24:20.200Z,50.00
2023-02-26T20:26:49.649Z,50.00
2023-02-26T20:29:19.178Z,49.90
2023-02-26T20:31:50.417Z,50.00
2023-02-26T20:34:19.435Z,49.90
2023-02-26T20:36:49.901Z,49.90
2023-02-26T20:39:21.000Z,49.90
2023-02-26T20:41:50.475Z,49.90
2023-02-26T20:44:19.165Z,50.00
2023-02-26T20:46:49.166Z,50.00
2023-02-26T20:49:17.861Z,50.10
2023-02-26T20:51:46.298Z,50.10
2023-02-26T20:54:16.295Z,50.20
2023-02-26T20:56:45.210Z,50.30
2023-02-26T20:59:13.712Z,50.30
2023-02-26T21:01:42.484Z,50.30
2023-02-26T21:04:12.332Z,50.40
2023-02-26T21:06:41.330Z,50.30
2023-02-26T21:09:11.201Z,50.40
2023-02-26T21:11:40.412Z,50.50
2023-02-26T21:14:10.499Z,50.50
2023-02-26T21:16:41.367Z,50.50
2023-02-26T21:19:11.256Z,50.40
2023-02-26T21:21:39.730Z,50.50
2023-02-26T21:24:08.966Z,50.50
2023-02-26T21:26:37.636Z,50.50
2023-02-26T21:29:06.005Z,50.50
2023-02-26T21:31:35.297Z,50.50
2023-02-26T21:34:23.500Z,50.50
2023-02-26T21:36:54.109Z,50.50
2023-02-26T21:39:22.625Z,50.50
2023-02-26T21:41:51.253Z,50.50
2023-02-26T21:44:19.848Z,50.50
2023-02-26T21:46:48.196Z,50.50
2023-02-26T21:49:16.833Z,50.60
2023-02-26T21:51:45.404Z,50.60
2023-02-26T21:54:15.136Z,50.60
2023-02-26T21:56:43.533Z,50.70
2023-02-26T21:59:11.944Z,50.70
2023-02-26T22:01:40.763Z,50.70
2023-02-26T22:04:09.273Z,50.70
2023-02-26T22:06:37.880Z,50.70
2023-02-26T22:09:06.839Z,50.80
2023-02-26T22:11:36.955Z,50.80
2023-02-26T22:14:05.807Z,50.80
2023-02-26T22:16:34.550Z,50.80
2023-02-26T22:19:03.344Z,50.70
2023-02-26T22:21:31.804Z,50.70
2023-02-26T22:24:02.040Z,50.60
2023-02-26T22:26:31.279Z,50.60
2023-02-26T22:29:01.160Z,50.60
2023-02-26T22:31:30.199Z,50.70
2023-02-26T22:33:58.671Z,50.70
2023-02-26T22:36:29.412Z,50.60
2023-02-26T22:38:57.853Z,50.60
2023-02-26T22:41:26.153Z,50.60
2023-02-26T22:43:55.017Z,50.60
2023-02-26T22:46:28.304Z,50.60
2023-02-26T22:48:57.561Z,50.50
2023-02-26T22:51:28.167Z,50.70
2023-02-26T22:53:57.315Z,50.70
2023-02-26T22:56:26.037Z,50.80
2023-02-26T22:58:54.508Z,50.70
2023-02-26T23:01:24.639Z,50.90
2023-02-26T23:03:53.479Z,51.00
2023-02-26T23:06:22.330Z,51.70
2023-02-26T23:08:50.850Z,51.10
2023-02-26T23:11:19.349Z,51.00
2023-02-26T23:13:48.705Z,51.20
2023-02-26T23:16:17.220Z,51.10
2023-02-26T23:18:48.041Z,51.30
2023-02-26T23:21:16.990Z,51.20
2023-02-26T23:23:45.500Z,51.30
2023-02-26T23:26:14.654Z,51.30
2023-02-26T23:28:43.626Z,51.30
2023-02-26T23:31:12.231Z,51.30
2023-02-26T23:33:41.262Z,51.20
2023-02-26T23:36:12.556Z,51.10
2023-02-26T23:38:41.038Z,51.10
2023-02-26T23:41:09.403Z,51.10
2023-02-26T23:43:37.768Z,51.10
2023-02-26T23:46:06.664Z,51.10
2023-02-26T23:48:35.058Z,51.10
2023-02-26T23:51:03.490Z,51.20
2023-02-26T23:53:33.686Z,51.30
2023-02-26T23:56:02.490Z,51.30
2023-02-26T23:58:31.814Z,51.40
